sensor_id;sensor_type;location;lat;lon;timestamp;pressure;altitude;pressure_sealevel;temperature
13570;BMP180;6856;51.460;7.158;2022-12-18T00:02:04;101520.00;;;-2.90
13570;BMP180;6856;51.460;7.158;2022-12-18T00:04:37;101514.00;;;-2.90
13570;BMP180;6856;51.460;7.158;2022-12-18T00:07:11;101525.00;;;-2.90
13570;BMP180;6856;51.460;7.158;2022-12-18T00:09:46;101531.00;;;-3.00
13570;BMP180;6856;51.460;7.158;2022-12-18T00:12:20;101516.00;;;-3.00
13570;BMP180;6856;51.460;7.158;2022-12-18T00:14:55;101536.00;;;-3.00
13570;BMP180;6856;51.460;7.158;2022-12-18T00:17:29;101534.00;;;-3.00
13570;BMP180;6856;51.460;7.158;2022-12-18T00:20:04;101544.00;;;-3.00
13570;BMP180;6856;51.460;7.158;2022-12-18T00:22:39;101523.00;;;-3.00
13570;BMP180;6856;51.460;7.158;2022-12-18T00:25:13;101538.00;;;-3.10
13570;BMP180;6856;51.460;7.158;2022-12-18T00:27:47;101528.00;;;-3.10
13570;BMP180;6856;51.460;7.158;2022-12-18T00:30:23;101538.00;;;-3.10
13570;BMP180;6856;51.460;7.158;2022-12-18T00:32:58;101524.00;;;-3.10
13570;BMP180;6856;51.460;7.158;2022-12-18T00:35:32;101519.00;;;-3.10
13570;BMP180;6856;51.460;7.158;2022-12-18T00:38:06;101513.00;;;-3.10
13570;BMP180;6856;51.460;7.158;2022-12-18T00:40:42;101506.00;;;-3.10
13570;BMP180;6856;51.460;7.158;2022-12-18T00:43:19;101517.00;;;-3.10
13570;BMP180;6856;51.460;7.158;2022-12-18T00:45:53;101522.00;;;-3.10
13570;BMP180;6856;51.460;7.158;2022-12-18T00:48:27;101528.00;;;-3.10
13570;BMP180;6856;51.460;7.158;2022-12-18T00:51:01;101513.00;;;-3.20
13570;BMP180;6856;51.460;7.158;2022-12-18T00:53:35;101505.00;;;-3.20
13570;BMP180;6856;51.460;7.158;2022-12-18T00:56:09;101521.00;;;-3.30
13570;BMP180;6856;51.460;7.158;2022-12-18T00:58:43;101522.00;;;-3.20
13570;BMP180;6856;51.460;7.158;2022-12-18T01:01:18;101518.00;;;-3.30
13570;BMP180;6856;51.460;7.158;2022-12-18T01:03:53;101517.00;;;-3.30
13570;BMP180;6856;51.460;7.158;2022-12-18T01:06:26;101479.00;;;-3.30
13570;BMP180;6856;51.460;7.158;2022-12-18T01:09:00;101511.00;;;-3.30
13570;BMP180;6856;51.460;7.158;2022-12-18T01:11:34;101517.00;;;-3.30
13570;BMP180;6856;51.460;7.158;2022-12-18T01:14:08;101521.00;;;-3.30
13570;BMP180;6856;51.460;7.158;2022-12-18T01:16:45;101522.00;;;-3.40
13570;BMP180;6856;51.460;7.158;2022-12-18T01:19:19;101523.00;;;-3.40
13570;BMP180;6856;51.460;7.158;2022-12-18T01:21:53;101525.00;;;-3.40
13570;BMP180;6856;51.460;7.158;2022-12-18T01:24:27;101533.00;;;-3.40
13570;BMP180;6856;51.460;7.158;2022-12-18T01:27:01;101533.00;;;-3.40
13570;BMP180;6856;51.460;7.158;2022-12-18T01:29:35;101528.00;;;-3.40
13570;BMP180;6856;51.460;7.158;2022-12-18T01:32:10;101533.00;;;-3.40
13570;BMP180;6856;51.460;7.158;2022-12-18T01:34:45;101535.00;;;-3.40
13570;BMP180;6856;51.460;7.158;2022-12-18T01:37:19;101525.00;;;-3.50
13570;BMP180;6856;51.460;7.158;2022-12-18T01:39:53;101517.00;;;-3.50
13570;BMP180;6856;51.460;7.158;2022-12-18T01:42:28;101521.00;;;-3.50
13570;BMP180;6856;51.460;7.158;2022-12-18T01:45:22;101523.00;;;-3.50
13570;BMP180;6856;51.460;7.158;2022-12-18T01:48:02;101501.00;;;-3.50
13570;BMP180;6856;51.460;7.158;2022-12-18T01:50:40;101470.00;;;-3.70
13570;BMP180;6856;51.460;7.158;2022-12-18T01:53:17;101514.00;;;-3.70
13570;BMP180;6856;51.460;7.158;2022-12-18T01:55:57;101492.00;;;-3.60
13570;BMP180;6856;51.460;7.158;2022-12-18T01:58:40;101497.00;;;-3.60
13570;BMP180;6856;51.460;7.158;2022-12-18T02:01:18;101493.00;;;-3.60
13570;BMP180;6856;51.460;7.158;2022-12-18T02:03:55;101485.00;;;-3.70
13570;BMP180;6856;51.460;7.158;2022-12-18T02:06:39;101495.00;;;-3.70
13570;BMP180;6856;51.460;7.158;2022-12-18T02:09:19;101487.00;;;-3.70
13570;BMP180;6856;51.460;7.158;2022-12-18T02:12:01;101489.00;;;-3.70
13570;BMP180;6856;51.460;7.158;2022-12-18T02:14:42;101492.00;;;-3.60
13570;BMP180;6856;51.460;7.158;2022-12-18T02:17:21;101494.00;;;-3.60
13570;BMP180;6856;51.460;7.158;2022-12-18T02:20:12;101502.00;;;-3.50
13570;BMP180;6856;51.460;7.158;2022-12-18T02:23:04;101509.00;;;-3.30
13570;BMP180;6856;51.460;7.158;2022-12-18T02:26:04;101499.00;;;-3.20
13570;BMP180;6856;51.460;7.158;2022-12-18T02:28:45;101494.00;;;-3.10
13570;BMP180;6856;51.460;7.158;2022-12-18T02:31:26;101490.00;;;-3.00
13570;BMP180;6856;51.460;7.158;2022-12-18T02:34:04;101492.00;;;-2.80
13570;BMP180;6856;51.460;7.158;2022-12-18T02:36:41;101490.00;;;-2.70
13570;BMP180;6856;51.460;7.158;2022-12-18T02:39:17;101483.00;;;-2.50
13570;BMP180;6856;51.460;7.158;2022-12-18T02:41:56;101483.00;;;-2.40
13570;BMP180;6856;51.460;7.158;2022-12-18T02:44:31;101474.00;;;-2.20
13570;BMP180;6856;51.460;7.158;2022-12-18T02:47:05;101487.00;;;-2.20
13570;BMP180;6856;51.460;7.158;2022-12-18T02:49:50;101498.00;;;-2.00
13570;BMP180;6856;51.460;7.158;2022-12-18T02:52:35;101494.00;;;-1.90
13570;BMP180;6856;51.460;7.158;2022-12-18T02:55:29;101481.00;;;-1.80
13570;BMP180;6856;51.460;7.158;2022-12-18T02:58:16;101493.00;;;-1.70
13570;BMP180;6856;51.460;7.158;2022-12-18T03:00:59;101500.00;;;-1.60
13570;BMP180;6856;51.460;7.158;2022-12-18T03:03:40;101505.00;;;-1.50
13570;BMP180;6856;51.460;7.158;2022-12-18T03:06:24;101508.00;;;-1.40
13570;BMP180;6856;51.460;7.158;2022-12-18T03:09:04;101502.00;;;-1.30
13570;BMP180;6856;51.460;7.158;2022-12-18T03:11:44;101503.00;;;-1.20
13570;BMP180;6856;51.460;7.158;2022-12-18T03:14:41;101508.00;;;-1.20
13570;BMP180;6856;51.460;7.158;2022-12-18T03:17:19;101504.00;;;-1.10
13570;BMP180;6856;51.460;7.158;2022-12-18T03:19:58;101503.00;;;-1.10
13570;BMP180;6856;51.460;7.158;2022-12-18T03:22:36;101500.00;;;-1.00
13570;BMP180;6856;51.460;7.158;2022-12-18T03:25:15;101505.00;;;-0.90
13570;BMP180;6856;51.460;7.158;2022-12-18T03:27:55;101473.00;;;-0.90
13570;BMP180;6856;51.460;7.158;2022-12-18T03:30:37;101481.00;;;-0.80
13570;BMP180;6856;51.460;7.158;2022-12-18T03:33:19;101484.00;;;-0.80
13570;BMP180;6856;51.460;7.158;2022-12-18T03:35:54;101495.00;;;-0.70
13570;BMP180;6856;51.460;7.158;2022-12-18T03:38:29;101490.00;;;-0.70
13570;BMP180;6856;51.460;7.158;2022-12-18T03:41:14;101492.00;;;-0.60
13570;BMP180;6856;51.460;7.158;2022-12-18T03:43:54;101490.00;;;-0.60
13570;BMP180;6856;51.460;7.158;2022-12-18T03:46:40;101486.00;;;-0.60
13570;BMP180;6856;51.460;7.158;2022-12-18T03:49:28;101494.00;;;-0.60
13570;BMP180;6856;51.460;7.158;2022-12-18T03:52:10;101494.00;;;-0.50
13570;BMP180;6856;51.460;7.158;2022-12-18T03:54:46;101494.00;;;-0.50
13570;BMP180;6856;51.460;7.158;2022-12-18T03:57:26;101503.00;;;-0.50
13570;BMP180;6856;51.460;7.158;2022-12-18T04:00:07;101459.00;;;-0.40
13570;BMP180;6856;51.460;7.158;2022-12-18T04:02:49;101475.00;;;-0.40
13570;BMP180;6856;51.460;7.158;2022-12-18T04:05:28;101494.00;;;-0.40
13570;BMP180;6856;51.460;7.158;2022-12-18T04:08:10;101496.00;;;-0.30
13570;BMP180;6856;51.460;7.158;2022-12-18T04:10:44;101476.00;;;-0.30
13570;BMP180;6856;51.460;7.158;2022-12-18T04:13:22;101486.00;;;-0.30
13570;BMP180;6856;51.460;7.158;2022-12-18T04:15:57;101495.00;;;-0.30
13570;BMP180;6856;51.460;7.158;2022-12-18T04:18:41;101469.00;;;-0.30
13570;BMP180;6856;51.460;7.158;2022-12-18T04:21:15;101505.00;;;-0.30
13570;BMP180;6856;51.460;7.158;2022-12-18T04:23:49;101497.00;;;-0.30
13570;BMP180;6856;51.460;7.158;2022-12-18T04:26:23;101494.00;;;-0.30
13570;BMP180;6856;51.460;7.158;2022-12-18T04:28:57;101471.00;;;-0.30
13570;BMP180;6856;51.460;7.158;2022-12-18T04:31:31;101493.00;;;-0.30
13570;BMP180;6856;51.460;7.158;2022-12-18T04:34:06;101491.00;;;-0.40
13570;BMP180;6856;51.460;7.158;2022-12-18T04:36:39;101476.00;;;-0.40
13570;BMP180;6856;51.460;7.158;2022-12-18T04:39:17;101483.00;;;-0.40
13570;BMP180;6856;51.460;7.158;2022-12-18T04:41:51;101485.00;;;-0.40
13570;BMP180;6856;51.460;7.158;2022-12-18T04:44:31;101462.00;;;-0.50
13570;BMP180;6856;51.460;7.158;2022-12-18T04:47:05;101485.00;;;-0.50
13570;BMP180;6856;51.460;7.158;2022-12-18T04:49:41;101488.00;;;-0.50
13570;BMP180;6856;51.460;7.158;2022-12-18T04:52:15;101477.00;;;-0.60
13570;BMP180;6856;51.460;7.158;2022-12-18T04:54:49;101478.00;;;-0.70
13570;BMP180;6856;51.460;7.158;2022-12-18T04:57:22;101472.00;;;-0.70
13570;BMP180;6856;51.460;7.158;2022-12-18T04:59:57;101490.00;;;-0.70
13570;BMP180;6856;51.460;7.158;2022-12-18T05:02:31;101462.00;;;-0.70
13570;BMP180;6856;51.460;7.158;2022-12-18T05:05:08;101467.00;;;-0.80
13570;BMP180;6856;51.460;7.158;2022-12-18T05:07:43;101434.00;;;-0.80
13570;BMP180;6856;51.460;7.158;2022-12-18T05:10:17;101461.00;;;-0.80
13570;BMP180;6856;51.460;7.158;2022-12-18T05:12:51;101459.00;;;-0.80
13570;BMP180;6856;51.460;7.158;2022-12-18T05:15:35;101464.00;;;-0.80
13570;BMP180;6856;51.460;7.158;2022-12-18T05:18:09;101458.00;;;-0.80
13570;BMP180;6856;51.460;7.158;2022-12-18T05:20:44;101449.00;;;-0.80
13570;BMP180;6856;51.460;7.158;2022-12-18T05:23:18;101448.00;;;-0.80
13570;BMP180;6856;51.460;7.158;2022-12-18T05:25:53;101436.00;;;-0.80
13570;BMP180;6856;51.460;7.158;2022-12-18T05:28:29;101441.00;;;-0.80
13570;BMP180;6856;51.460;7.158;2022-12-18T05:31:04;101446.00;;;-0.80
13570;BMP180;6856;51.460;7.158;2022-12-18T05:33:38;101437.00;;;-0.80
13570;BMP180;6856;51.460;7.158;2022-12-18T05:36:14;101435.00;;;-0.70
13570;BMP180;6856;51.460;7.158;2022-12-18T05:38:47;101453.00;;;-0.70
13570;BMP180;6856;51.460;7.158;2022-12-18T05:41:24;101448.00;;;-0.70
13570;BMP180;6856;51.460;7.158;2022-12-18T05:43:58;101452.00;;;-0.60
13570;BMP180;6856;51.460;7.158;2022-12-18T05:46:32;101439.00;;;-0.60
13570;BMP180;6856;51.460;7.158;2022-12-18T05:49:06;101441.00;;;-0.60
13570;BMP180;6856;51.460;7.158;2022-12-18T05:51:41;101454.00;;;-0.50
13570;BMP180;6856;51.460;7.158;2022-12-18T05:54:15;101462.00;;;-0.50
13570;BMP180;6856;51.460;7.158;2022-12-18T05:56:49;101470.00;;;-0.40
13570;BMP180;6856;51.460;7.158;2022-12-18T05:59:23;101477.00;;;-0.40
13570;BMP180;6856;51.460;7.158;2022-12-18T06:01:57;101475.00;;;-0.40
13570;BMP180;6856;51.460;7.158;2022-12-18T06:04:31;101475.00;;;-0.30
13570;BMP180;6856;51.460;7.158;2022-12-18T06:07:11;101448.00;;;-0.30
13570;BMP180;6856;51.460;7.158;2022-12-18T06:09:47;101478.00;;;-0.30
13570;BMP180;6856;51.460;7.158;2022-12-18T06:12:21;101481.00;;;-0.20
13570;BMP180;6856;51.460;7.158;2022-12-18T06:14:55;101494.00;;;-0.20
13570;BMP180;6856;51.460;7.158;2022-12-18T06:17:29;101502.00;;;-0.20
13570;BMP180;6856;51.460;7.158;2022-12-18T06:20:05;101512.00;;;-0.20
13570;BMP180;6856;51.460;7.158;2022-12-18T06:22:40;101519.00;;;-0.20
13570;BMP180;6856;51.460;7.158;2022-12-18T06:25:14;101529.00;;;-0.30
13570;BMP180;6856;51.460;7.158;2022-12-18T06:27:54;101525.00;;;-0.30
13570;BMP180;6856;51.460;7.158;2022-12-18T06:30:34;101530.00;;;-0.30
13570;BMP180;6856;51.460;7.158;2022-12-18T06:33:11;101525.00;;;-0.30
13570;BMP180;6856;51.460;7.158;2022-12-18T06:35:45;101484.00;;;-0.30
13570;BMP180;6856;51.460;7.158;2022-12-18T06:38:20;101528.00;;;-0.40
13570;BMP180;6856;51.460;7.158;2022-12-18T06:40:54;101533.00;;;-0.40
13570;BMP180;6856;51.460;7.158;2022-12-18T06:43:28;101513.00;;;-0.40
13570;BMP180;6856;51.460;7.158;2022-12-18T06:46:03;101508.00;;;-0.50
13570;BMP180;6856;51.460;7.158;2022-12-18T06:48:37;101490.00;;;-0.50
13570;BMP180;6856;51.460;7.158;2022-12-18T06:51:11;101501.00;;;-0.60
13570;BMP180;6856;51.460;7.158;2022-12-18T06:53:47;101491.00;;;-0.60
13570;BMP180;6856;51.460;7.158;2022-12-18T06:56:21;101487.00;;;-0.60
13570;BMP180;6856;51.460;7.158;2022-12-18T06:58:54;101490.00;;;-0.70
13570;BMP180;6856;51.460;7.158;2022-12-18T07:01:28;101487.00;;;-0.70
13570;BMP180;6856;51.460;7.158;2022-12-18T07:04:02;101461.00;;;-0.70
13570;BMP180;6856;51.460;7.158;2022-12-18T07:06:36;101465.00;;;-0.80
13570;BMP180;6856;51.460;7.158;2022-12-18T07:09:11;101465.00;;;-0.80
13570;BMP180;6856;51.460;7.158;2022-12-18T07:11:45;101453.00;;;-0.80
13570;BMP180;6856;51.460;7.158;2022-12-18T07:14:21;101464.00;;;-0.90
13570;BMP180;6856;51.460;7.158;2022-12-18T07:16:55;101456.00;;;-0.90
13570;BMP180;6856;51.460;7.158;2022-12-18T07:19:29;101465.00;;;-0.90
13570;BMP180;6856;51.460;7.158;2022-12-18T07:22:03;101458.00;;;-0.90
13570;BMP180;6856;51.460;7.158;2022-12-18T07:24:39;101464.00;;;-0.80
13570;BMP180;6856;51.460;7.158;2022-12-18T07:27:12;101458.00;;;-0.80
13570;BMP180;6856;51.460;7.158;2022-12-18T07:29:46;101465.00;;;-0.80
13570;BMP180;6856;51.460;7.158;2022-12-18T07:32:20;101467.00;;;-0.70
13570;BMP180;6856;51.460;7.158;2022-12-18T07:34:54;101455.00;;;-0.70
13570;BMP180;6856;51.460;7.158;2022-12-18T07:37:28;101448.00;;;-0.60
13570;BMP180;6856;51.460;7.158;2022-12-18T07:40:03;101439.00;;;-0.60
13570;BMP180;6856;51.460;7.158;2022-12-18T07:42:38;101439.00;;;-0.60
13570;BMP180;6856;51.460;7.158;2022-12-18T07:45:12;101437.00;;;-0.50
13570;BMP180;6856;51.460;7.158;2022-12-18T07:47:46;101432.00;;;-0.40
13570;BMP180;6856;51.460;7.158;2022-12-18T07:50:20;101442.00;;;-0.40
13570;BMP180;6856;51.460;7.158;2022-12-18T07:52:54;101451.00;;;-0.30
13570;BMP180;6856;51.460;7.158;2022-12-18T07:55:29;101461.00;;;-0.40
13570;BMP180;6856;51.460;7.158;2022-12-18T07:58:23;101456.00;;;-0.30
13570;BMP180;6856;51.460;7.158;2022-12-18T08:01:03;101457.00;;;-0.20
13570;BMP180;6856;51.460;7.158;2022-12-18T08:03:39;101457.00;;;-0.20
13570;BMP180;6856;51.460;7.158;2022-12-18T08:06:14;101446.00;;;-0.20
13570;BMP180;6856;51.460;7.158;2022-12-18T08:08:48;101459.00;;;-0.10
13570;BMP180;6856;51.460;7.158;2022-12-18T08:11:28;101455.00;;;-0.10
13570;BMP180;6856;51.460;7.158;2022-12-18T08:14:02;101461.00;;;-0.10
13570;BMP180;6856;51.460;7.158;2022-12-18T08:16:35;101454.00;;;-0.10
13570;BMP180;6856;51.460;7.158;2022-12-18T08:19:12;101448.00;;;-0.10
13570;BMP180;6856;51.460;7.158;2022-12-18T08:21:46;101432.00;;;0.00
13570;BMP180;6856;51.460;7.158;2022-12-18T08:24:21;101413.00;;;0.00
13570;BMP180;6856;51.460;7.158;2022-12-18T08:26:57;101431.00;;;0.00
13570;BMP180;6856;51.460;7.158;2022-12-18T08:29:51;101429.00;;;0.00
13570;BMP180;6856;51.460;7.158;2022-12-18T08:32:26;101417.00;;;0.00
13570;BMP180;6856;51.460;7.158;2022-12-18T08:35:01;101397.00;;;0.00
13570;BMP180;6856;51.460;7.158;2022-12-18T08:37:35;101395.00;;;0.10
13570;BMP180;6856;51.460;7.158;2022-12-18T08:40:10;101394.00;;;0.10
13570;BMP180;6856;51.460;7.158;2022-12-18T08:42:48;101392.00;;;0.10
13570;BMP180;6856;51.460;7.158;2022-12-18T08:45:39;101401.00;;;0.20
13570;BMP180;6856;51.460;7.158;2022-12-18T08:48:13;101406.00;;;0.20
13570;BMP180;6856;51.460;7.158;2022-12-18T08:50:57;101400.00;;;0.20
13570;BMP180;6856;51.460;7.158;2022-12-18T08:53:35;101385.00;;;0.30
13570;BMP180;6856;51.460;7.158;2022-12-18T08:56:12;101398.00;;;0.20
13570;BMP180;6856;51.460;7.158;2022-12-18T08:58:53;101393.00;;;0.30
13570;BMP180;6856;51.460;7.158;2022-12-18T09:01:28;101394.00;;;0.40
13570;BMP180;6856;51.460;7.158;2022-12-18T09:04:03;101398.00;;;0.40
13570;BMP180;6856;51.460;7.158;2022-12-18T09:06:47;101393.00;;;0.50
13570;BMP180;6856;51.460;7.158;2022-12-18T09:09:25;101396.00;;;0.60
13570;BMP180;6856;51.460;7.158;2022-12-18T09:11:59;101384.00;;;0.70
13570;BMP180;6856;51.460;7.158;2022-12-18T09:14:34;101392.00;;;0.80
13570;BMP180;6856;51.460;7.158;2022-12-18T09:17:08;101390.00;;;1.00
13570;BMP180;6856;51.460;7.158;2022-12-18T09:19:42;101387.00;;;1.10
13570;BMP180;6856;51.460;7.158;2022-12-18T09:22:16;101367.00;;;1.20
13570;BMP180;6856;51.460;7.158;2022-12-18T09:24:53;101373.00;;;1.40
13570;BMP180;6856;51.460;7.158;2022-12-18T09:27:54;101385.00;;;1.50
13570;BMP180;6856;51.460;7.158;2022-12-18T09:30:30;101385.00;;;1.70
13570;BMP180;6856;51.460;7.158;2022-12-18T09:33:06;101378.00;;;1.80
13570;BMP180;6856;51.460;7.158;2022-12-18T09:35:43;101374.00;;;2.00
13570;BMP180;6856;51.460;7.158;2022-12-18T09:38:19;101382.00;;;2.10
13570;BMP180;6856;51.460;7.158;2022-12-18T09:41:03;101379.00;;;2.20
13570;BMP180;6856;51.460;7.158;2022-12-18T09:43:48;101365.00;;;2.30
13570;BMP180;6856;51.460;7.158;2022-12-18T09:46:30;101373.00;;;2.50
13570;BMP180;6856;51.460;7.158;2022-12-18T09:49:12;101381.00;;;2.60
13570;BMP180;6856;51.460;7.158;2022-12-18T09:51:52;101386.00;;;2.70
13570;BMP180;6856;51.460;7.158;2022-12-18T09:54:35;101377.00;;;2.80
13570;BMP180;6856;51.460;7.158;2022-12-18T09:57:14;101394.00;;;2.90
13570;BMP180;6856;51.460;7.158;2022-12-18T09:59:54;101397.00;;;3.00
13570;BMP180;6856;51.460;7.158;2022-12-18T10:02:31;101382.00;;;3.10
13570;BMP180;6856;51.460;7.158;2022-12-18T10:05:15;101402.00;;;3.20
13570;BMP180;6856;51.460;7.158;2022-12-18T10:07:59;101401.00;;;3.30
13570;BMP180;6856;51.460;7.158;2022-12-18T10:10:43;101392.00;;;3.40
13570;BMP180;6856;51.460;7.158;2022-12-18T10:13:31;101366.00;;;3.50
13570;BMP180;6856;51.460;7.158;2022-12-18T10:16:14;101362.00;;;3.60
13570;BMP180;6856;51.460;7.158;2022-12-18T10:19:15;101343.00;;;3.70
13570;BMP180;6856;51.460;7.158;2022-12-18T10:22:07;101338.00;;;3.70
13570;BMP180;6856;51.460;7.158;2022-12-18T10:24:55;101359.00;;;3.80
13570;BMP180;6856;51.460;7.158;2022-12-18T10:27:32;101346.00;;;3.90
13570;BMP180;6856;51.460;7.158;2022-12-18T10:30:14;101350.00;;;3.90
13570;BMP180;6856;51.460;7.158;2022-12-18T10:32:48;101338.00;;;4.00
13570;BMP180;6856;51.460;7.158;2022-12-18T10:35:30;101334.00;;;4.10
13570;BMP180;6856;51.460;7.158;2022-12-18T10:38:22;101324.00;;;4.10
13570;BMP180;6856;51.460;7.158;2022-12-18T10:40:59;101333.00;;;4.20
13570;BMP180;6856;51.460;7.158;2022-12-18T10:43:39;101335.00;;;4.30
13570;BMP180;6856;51.460;7.158;2022-12-18T10:46:18;101342.00;;;4.30
13570;BMP180;6856;51.460;7.158;2022-12-18T10:48:58;101331.00;;;4.40
13570;BMP180;6856;51.460;7.158;2022-12-18T10:51:36;101327.00;;;4.40
13570;BMP180;6856;51.460;7.158;2022-12-18T10:54:17;101324.00;;;4.50
13570;BMP180;6856;51.460;7.158;2022-12-18T10:57:16;101332.00;;;4.60
13570;BMP180;6856;51.460;7.158;2022-12-18T10:59:53;101325.00;;;4.60
13570;BMP180;6856;51.460;7.158;2022-12-18T11:02:38;101321.00;;;4.70
13570;BMP180;6856;51.460;7.158;2022-12-18T11:05:33;101327.00;;;4.70
13570;BMP180;6856;51.460;7.158;2022-12-18T11:08:21;101321.00;;;4.80
13570;BMP180;6856;51.460;7.158;2022-12-18T11:10:56;101310.00;;;4.80
13570;BMP180;6856;51.460;7.158;2022-12-18T11:13:31;101296.00;;;4.90
13570;BMP180;6856;51.460;7.158;2022-12-18T11:16:07;101301.00;;;4.90
13570;BMP180;6856;51.460;7.158;2022-12-18T11:18:41;101305.00;;;4.90
13570;BMP180;6856;51.460;7.158;2022-12-18T11:21:16;101301.00;;;5.00
13570;BMP180;6856;51.460;7.158;2022-12-18T11:23:53;101304.00;;;5.00
13570;BMP180;6856;51.460;7.158;2022-12-18T11:26:34;101286.00;;;5.00
13570;BMP180;6856;51.460;7.158;2022-12-18T11:29:16;101288.00;;;5.10
13570;BMP180;6856;51.460;7.158;2022-12-18T11:31:51;101295.00;;;5.10
13570;BMP180;6856;51.460;7.158;2022-12-18T11:34:29;101289.00;;;5.20
13570;BMP180;6856;51.460;7.158;2022-12-18T11:37:04;101273.00;;;5.20
13570;BMP180;6856;51.460;7.158;2022-12-18T11:39:48;101273.00;;;5.20
13570;BMP180;6856;51.460;7.158;2022-12-18T11:42:30;101265.00;;;5.30
13570;BMP180;6856;51.460;7.158;2022-12-18T11:45:30;101264.00;;;5.30
13570;BMP180;6856;51.460;7.158;2022-12-18T11:48:16;101255.00;;;5.40
13570;BMP180;6856;51.460;7.158;2022-12-18T11:50:54;101249.00;;;5.40
13570;BMP180;6856;51.460;7.158;2022-12-18T11:53:30;101225.00;;;5.40
13570;BMP180;6856;51.460;7.158;2022-12-18T11:56:27;101217.00;;;5.40
13570;BMP180;6856;51.460;7.158;2022-12-18T11:59:17;101231.00;;;5.50
13570;BMP180;6856;51.460;7.158;2022-12-18T12:02:10;101221.00;;;5.50
13570;BMP180;6856;51.460;7.158;2022-12-18T12:05:04;101235.00;;;5.50
13570;BMP180;6856;51.460;7.158;2022-12-18T12:07:48;101231.00;;;5.60
13570;BMP180;6856;51.460;7.158;2022-12-18T12:10:42;101230.00;;;5.60
13570;BMP180;6856;51.460;7.158;2022-12-18T12:13:37;101230.00;;;5.60
13570;BMP180;6856;51.460;7.158;2022-12-18T12:16:23;101236.00;;;5.70
13570;BMP180;6856;51.460;7.158;2022-12-18T12:19:18;101223.00;;;5.70
13570;BMP180;6856;51.460;7.158;2022-12-18T12:22:03;101227.00;;;5.70
13570;BMP180;6856;51.460;7.158;2022-12-18T12:24:55;101228.00;;;5.70
13570;BMP180;6856;51.460;7.158;2022-12-18T12:27:41;101236.00;;;5.80
13570;BMP180;6856;51.460;7.158;2022-12-18T12:30:27;101233.00;;;5.80
13570;BMP180;6856;51.460;7.158;2022-12-18T12:33:22;101210.00;;;5.80
13570;BMP180;6856;51.460;7.158;2022-12-18T12:36:10;101213.00;;;5.90
13570;BMP180;6856;51.460;7.158;2022-12-18T12:38:51;101210.00;;;5.90
13570;BMP180;6856;51.460;7.158;2022-12-18T12:41:32;101210.00;;;5.90
13570;BMP180;6856;51.460;7.158;2022-12-18T12:44:29;101216.00;;;5.90
13570;BMP180;6856;51.460;7.158;2022-12-18T12:47:15;101209.00;;;6.00
13570;BMP180;6856;51.460;7.158;2022-12-18T12:49:51;101206.00;;;6.00
13570;BMP180;6856;51.460;7.158;2022-12-18T12:52:34;101211.00;;;6.00
13570;BMP180;6856;51.460;7.158;2022-12-18T12:55:17;101210.00;;;6.00
13570;BMP180;6856;51.460;7.158;2022-12-18T12:58:05;101204.00;;;6.00
13570;BMP180;6856;51.460;7.158;2022-12-18T13:00:49;101205.00;;;6.10
13570;BMP180;6856;51.460;7.158;2022-12-18T13:03:39;101206.00;;;6.10
13570;BMP180;6856;51.460;7.158;2022-12-18T13:06:27;101208.00;;;6.10
13570;BMP180;6856;51.460;7.158;2022-12-18T13:09:04;101194.00;;;6.10
13570;BMP180;6856;51.460;7.158;2022-12-18T13:11:40;101203.00;;;6.10
13570;BMP180;6856;51.460;7.158;2022-12-18T13:14:36;101201.00;;;6.20
13570;BMP180;6856;51.460;7.158;2022-12-18T13:17:30;101193.00;;;6.10
13570;BMP180;6856;51.460;7.158;2022-12-18T13:20:18;101201.00;;;6.10
13570;BMP180;6856;51.460;7.158;2022-12-18T13:22:53;101196.00;;;6.10
13570;BMP180;6856;51.460;7.158;2022-12-18T13:25:36;101192.00;;;6.10
13570;BMP180;6856;51.460;7.158;2022-12-18T13:28:13;101207.00;;;6.10
13570;BMP180;6856;51.460;7.158;2022-12-18T13:30:56;101207.00;;;6.10
13570;BMP180;6856;51.460;7.158;2022-12-18T13:33:50;101206.00;;;6.10
13570;BMP180;6856;51.460;7.158;2022-12-18T13:36:46;101207.00;;;6.20
13570;BMP180;6856;51.460;7.158;2022-12-18T13:39:31;101196.00;;;6.10
13570;BMP180;6856;51.460;7.158;2022-12-18T13:45:48;101203.00;;;6.10
13570;BMP180;6856;51.460;7.158;2022-12-18T13:48:26;101188.00;;;6.10
13570;BMP180;6856;51.460;7.158;2022-12-18T13:51:04;101191.00;;;6.10
13570;BMP180;6856;51.460;7.158;2022-12-18T13:53:47;101173.00;;;6.10
13570;BMP180;6856;51.460;7.158;2022-12-18T13:56:25;101176.00;;;6.10
13570;BMP180;6856;51.460;7.158;2022-12-18T13:59:22;101169.00;;;6.10
13570;BMP180;6856;51.460;7.158;2022-12-18T14:02:00;101168.00;;;6.00
13570;BMP180;6856;51.460;7.158;2022-12-18T14:04:36;101160.00;;;6.00
13570;BMP180;6856;51.460;7.158;2022-12-18T14:07:16;101152.00;;;6.00
13570;BMP180;6856;51.460;7.158;2022-12-18T14:09:56;101145.00;;;6.00
13570;BMP180;6856;51.460;7.158;2022-12-18T14:12:51;101132.00;;;6.00
13570;BMP180;6856;51.460;7.158;2022-12-18T14:15:39;101123.00;;;5.90
13570;BMP180;6856;51.460;7.158;2022-12-18T14:18:22;101129.00;;;5.90
13570;BMP180;6856;51.460;7.158;2022-12-18T14:20:59;101123.00;;;5.90
13570;BMP180;6856;51.460;7.158;2022-12-18T14:23:37;101111.00;;;5.90
13570;BMP180;6856;51.460;7.158;2022-12-18T14:26:24;101112.00;;;5.80
13570;BMP180;6856;51.460;7.158;2022-12-18T14:29:21;101089.00;;;5.80
13570;BMP180;6856;51.460;7.158;2022-12-18T14:32:11;101088.00;;;5.80
13570;BMP180;6856;51.460;7.158;2022-12-18T14:34:51;101095.00;;;5.70
13570;BMP180;6856;51.460;7.158;2022-12-18T14:37:27;101082.00;;;5.70
13570;BMP180;6856;51.460;7.158;2022-12-18T14:40:13;101064.00;;;5.70
13570;BMP180;6856;51.460;7.158;2022-12-18T14:42:49;101079.00;;;5.60
13570;BMP180;6856;51.460;7.158;2022-12-18T14:45:44;101087.00;;;5.60
13570;BMP180;6856;51.460;7.158;2022-12-18T14:48:22;101094.00;;;5.60
13570;BMP180;6856;51.460;7.158;2022-12-18T14:51:02;101081.00;;;5.60
13570;BMP180;6856;51.460;7.158;2022-12-18T14:53:40;101081.00;;;5.60
13570;BMP180;6856;51.460;7.158;2022-12-18T14:56:26;101083.00;;;5.60
13570;BMP180;6856;51.460;7.158;2022-12-18T14:59:04;101076.00;;;5.60
13570;BMP180;6856;51.460;7.158;2022-12-18T15:01:46;101065.00;;;5.60
13570;BMP180;6856;51.460;7.158;2022-12-18T15:04:27;101073.00;;;5.60
13570;BMP180;6856;51.460;7.158;2022-12-18T15:07:13;101076.00;;;5.60
13570;BMP180;6856;51.460;7.158;2022-12-18T15:10:07;101068.00;;;5.60
13570;BMP180;6856;51.460;7.158;2022-12-18T15:12:45;101067.00;;;5.60
13570;BMP180;6856;51.460;7.158;2022-12-18T15:15:54;101056.00;;;5.60
13570;BMP180;6856;51.460;7.158;2022-12-18T15:18:33;101057.00;;;5.50
13570;BMP180;6856;51.460;7.158;2022-12-18T15:21:11;101057.00;;;5.50
13570;BMP180;6856;51.460;7.158;2022-12-18T15:23:52;101069.00;;;5.50
13570;BMP180;6856;51.460;7.158;2022-12-18T15:26:36;101059.00;;;5.50
13570;BMP180;6856;51.460;7.158;2022-12-18T15:29:20;101048.00;;;5.40